Clarenville, Canada
Current Conditions -  °F | °C
As of 9:00 AM on Sunday 21 Dec 2014 (Local Time) from CYQX Reporting Station
Overcast Overcast  
Wind Chill: 15°   Ceiling: 1500
Heat Index: 25°   Visibility: 15mi
Dew Point: 19°   Wind: 9mph
Humidity: 80%   Direction: 290°WNW
Pressure: 30.28"   Gusts: NA
Location:  48.15°N, 53.97°W
Report Text: CYQX 211200Z 29008KT 15SM OVC015 M04/M07 A3028 RMK SC8 SLP263
Loading
Personal Weather Stations






























Interactive Weather Map New forecast layout! Learn more

10-Day Weather Forecast

Advertisements
Track Severe Weather on mobile